Time;durP1;ratioP1;P1;durP2;ratioP2;P2;SDS_P1;SDS_P2;PMS_P1;PMS_P2;Temp;Humidity;BMP_temperature;BMP_pressure;BME280_temperature;BME280_humidity;BME280_pressure;Samples;Min_cycle;Max_cycle;Signal;HPM_P1;HPM_P2
2021/01/25 00:01:10;;;;;;;8.73;7.13;;;-0.70;99.90;;;;;;5051052;28;20265;-80
2021/01/25 00:03:35;;;;;;;8.07;6.80;;;-0.70;99.90;;;;;;5052004;28;20205;-79
2021/01/25 00:06:02;;;;;;;7.87;7.03;;;-0.70;99.90;;;;;;5050769;28;20181;-81
2021/01/25 00:08:28;;;;;;;9.90;7.53;;;-0.70;99.90;;;;;;5050506;28;20182;-80
2021/01/25 00:10:54;;;;;;;9.10;7.60;;;-0.60;99.90;;;;;;5050539;28;20198;-79
2021/01/25 00:13:20;;;;;;;10.03;7.50;;;-0.60;99.90;;;;;;5050644;28;20181;-81
2021/01/25 00:15:49;;;;;;;10.40;7.17;;;-0.50;99.90;;;;;;5019743;28;20189;-78
2021/01/25 00:18:16;;;;;;;9.57;6.97;;;-0.50;99.90;;;;;;5036467;28;20193;-80
2021/01/25 00:20:42;;;;;;;12.20;7.73;;;-0.50;99.90;;;;;;5035367;28;20724;-81
2021/01/25 00:23:08;;;;;;;10.57;7.83;;;-0.50;99.90;;;;;;5036926;28;20225;-79
2021/01/25 00:25:34;;;;;;;9.20;7.83;;;-0.50;99.90;;;;;;5037117;28;20182;-80
2021/01/25 00:28:00;;;;;;;12.80;9.33;;;-0.40;99.90;;;;;;5036340;28;20182;-80
2021/01/25 00:30:26;;;;;;;11.20;8.77;;;-0.50;99.90;;;;;;5019369;28;20268;-80
2021/01/25 00:32:52;;;;;;;9.00;8.10;;;-0.50;99.90;;;;;;5037085;28;20182;-80
2021/01/25 00:35:18;;;;;;;10.50;8.87;;;-0.50;99.90;;;;;;5036801;28;20527;-80
2021/01/25 00:37:44;;;;;;;10.20;8.13;;;-0.40;99.90;;;;;;5036082;28;20182;-80
2021/01/25 00:40:11;;;;;;;9.83;8.50;;;-0.40;99.90;;;;;;5037064;28;20183;-80
2021/01/25 00:42:37;;;;;;;10.80;8.33;;;-0.40;99.90;;;;;;5036637;28;20686;-80
2021/01/25 00:45:05;;;;;;;10.27;8.70;;;-0.50;99.90;;;;;;5037073;28;20520;-80
2021/01/25 00:47:31;;;;;;;9.17;7.90;;;-0.60;99.90;;;;;;5037365;28;20174;-80
2021/01/25 00:49:58;;;;;;;9.93;8.17;;;-0.70;99.90;;;;;;5036547;28;20178;-80
2021/01/25 00:52:23;;;;;;;9.67;8.27;;;-0.70;99.90;;;;;;5036885;28;20224;-80
2021/01/25 00:54:49;;;;;;;10.47;8.27;;;-0.80;99.90;;;;;;5036559;28;20182;-81
2021/01/25 00:57:15;;;;;;;9.33;7.83;;;-0.80;99.90;;;;;;5036321;28;20179;-80
2021/01/25 00:59:42;;;;;;;15.00;7.73;;;-0.80;99.90;;;;;;5018530;28;20185;-80
2021/01/25 01:02:08;;;;;;;10.63;8.20;;;-0.80;99.90;;;;;;5037314;28;20205;-81
2021/01/25 01:04:34;;;;;;;8.40;7.60;;;-0.80;99.90;;;;;;5036392;28;20256;-80
2021/01/25 01:07:00;;;;;;;9.47;7.70;;;-0.80;99.90;;;;;;5038330;28;20181;-80
2021/01/25 01:09:26;;;;;;;10.33;8.03;;;-0.80;99.90;;;;;;5040205;28;20196;-81
2021/01/25 01:11:52;;;;;;;8.73;6.97;;;-0.90;99.90;;;;;;5040099;28;20213;-80
2021/01/25 01:14:18;;;;;;;9.97;8.07;;;-1.00;99.90;;;;;;5039517;28;20225;-80
2021/01/25 01:16:44;;;;;;;31.90;17.00;;;-1.00;99.90;;;;;;5039531;28;20173;-80
2021/01/25 01:19:13;;;;;;;13.63;9.50;;;-1.00;99.90;;;;;;5039146;28;20684;-80
2021/01/25 01:21:39;;;;;;;13.57;10.77;;;-1.00;99.90;;;;;;5038925;28;20280;-80
2021/01/25 01:24:05;;;;;;;12.17;9.50;;;-1.00;99.90;;;;;;5039257;28;20283;-80
2021/01/25 01:26:31;;;;;;;10.57;9.23;;;-1.00;99.90;;;;;;5039197;28;20179;-81
2021/01/25 01:28:57;;;;;;;12.63;8.90;;;-0.90;99.90;;;;;;5020935;28;20170;-80
2021/01/25 01:31:22;;;;;;;12.87;10.47;;;-0.90;99.90;;;;;;5038518;28;20225;-80
2021/01/25 01:33:48;;;;;;;11.70;9.90;;;-0.90;99.90;;;;;;5038650;28;20201;-80
2021/01/25 01:36:14;;;;;;;10.40;9.17;;;-0.90;99.90;;;;;;5020766;28;20253;-81
2021/01/25 01:38:41;;;;;;;17.37;12.47;;;-0.90;99.90;;;;;;5038481;28;20178;-80
2021/01/25 01:41:07;;;;;;;12.43;10.00;;;-0.90;99.90;;;;;;5038387;28;20223;-80
2021/01/25 01:43:33;;;;;;;12.03;10.37;;;-0.90;99.90;;;;;;5040244;28;20209;-81
2021/01/25 01:45:59;;;;;;;11.00;9.97;;;-0.90;99.90;;;;;;5041089;28;20259;-81
2021/01/25 01:48:25;;;;;;;11.33;9.67;;;-0.90;99.90;;;;;;5041538;28;20180;-81
2021/01/25 01:50:52;;;;;;;9.73;8.77;;;-0.90;99.90;;;;;;5037983;28;20218;-81
2021/01/25 01:53:19;;;;;;;13.87;9.83;;;-0.80;99.90;;;;;;5041184;28;20690;-81
2021/01/25 01:55:45;;;;;;;9.27;8.37;;;-0.80;99.90;;;;;;5040701;28;20184;-81
2021/01/25 01:58:14;;;;;;;10.70;8.80;;;-0.80;99.90;;;;;;5040377;28;20209;-81
2021/01/25 02:00:40;;;;;;;13.60;9.60;;;-0.80;99.90;;;;;;5040432;28;20186;-80
2021/01/25 02:03:05;;;;;;;10.10;8.87;;;-0.70;99.90;;;;;;5040490;28;20261;-80
2021/01/25 02:05:31;;;;;;;9.27;7.40;;;-0.70;99.90;;;;;;5022272;28;20221;-80
2021/01/25 02:07:59;;;;;;;9.20;8.37;;;-0.60;99.90;;;;;;5039708;28;20198;-80
2021/01/25 02:10:27;;;;;;;9.90;8.53;;;-0.60;99.90;;;;;;5039710;28;20178;-80
2021/01/25 02:12:57;;;;;;;9.67;8.43;;;-0.60;99.90;;;;;;5022074;28;20185;-80
2021/01/25 02:15:25;;;;;;;11.23;9.60;;;-0.60;99.90;;;;;;5038676;28;20186;-81
2021/01/25 02:17:51;;;;;;;10.80;8.80;;;-0.60;99.90;;;;;;5036531;28;20189;-81
2021/01/25 02:20:23;;;;;;;9.33;8.43;;;-0.60;99.90;;;;;;5039589;28;20563;-80
2021/01/25 02:22:59;;;;;;;8.53;7.73;;;-0.60;99.90;;;;;;5039468;28;20206;-80
2021/01/25 02:26:03;;;;;;;8.60;7.80;;;-0.50;99.90;;;;;;5038751;28;20189;-80
2021/01/25 02:28:30;;;;;;;9.23;7.73;;;-0.50;99.90;;;;;;5039066;28;20292;-80
2021/01/25 02:31:00;;;;;;;8.70;7.90;;;-0.50;99.90;;;;;;5039099;28;20197;-80
2021/01/25 02:33:28;;;;;;;9.20;8.30;;;-0.40;99.90;;;;;;5039403;28;20193;-81
2021/01/25 02:35:55;;;;;;;9.60;8.80;;;-0.40;99.90;;;;;;5020958;28;20178;-80
2021/01/25 02:38:23;;;;;;;9.93;8.50;;;-0.40;99.90;;;;;;5038450;28;20208;-80
2021/01/25 02:40:52;;;;;;;9.80;7.97;;;-0.40;99.90;;;;;;5020521;28;20204;-80
2021/01/25 02:43:19;;;;;;;8.60;7.77;;;-0.30;99.90;;;;;;5038267;28;20209;-80
2021/01/25 02:45:46;;;;;;;8.60;7.80;;;-0.30;99.90;;;;;;5037937;28;20265;-80
2021/01/25 02:48:12;;;;;;;10.23;8.27;;;-0.30;99.90;;;;;;5038559;28;20266;-80
2021/01/25 02:50:37;;;;;;;9.53;7.40;;;-0.20;99.90;;;;;;5020374;28;20206;-80
2021/01/25 02:53:03;;;;;;;7.43;6.83;;;-0.20;99.90;;;;;;5020571;28;20556;-80
2021/01/25 02:55:32;;;;;;;7.03;6.43;;;-0.20;99.90;;;;;;5038261;28;20182;-80
2021/01/25 02:57:58;;;;;;;7.83;7.13;;;-0.20;99.90;;;;;;5037573;28;20167;-79
2021/01/25 03:00:24;;;;;;;9.73;7.70;;;-0.30;99.90;;;;;;5020012;28;20186;-80
2021/01/25 03:02:52;;;;;;;10.50;7.37;;;-0.20;99.90;;;;;;5037553;28;20339;-79
2021/01/25 03:05:18;;;;;;;7.10;6.50;;;-0.20;99.90;;;;;;5037964;28;20224;-80
2021/01/25 03:07:44;;;;;;;9.00;7.63;;;-0.10;99.90;;;;;;5035379;28;20185;-80
2021/01/25 03:10:11;;;;;;;12.30;7.30;;;-0.10;99.90;;;;;;5037141;28;20183;-79
2021/01/25 03:12:37;;;;;;;6.47;5.77;;;-0.10;99.90;;;;;;5030392;28;21002;-78
2021/01/25 03:15:05;;;;;;;5.87;5.27;;;-0.10;99.90;;;;;;5032239;28;20179;-76
2021/01/25 03:17:31;;;;;;;5.80;5.20;;;-0.10;99.90;;;;;;5013820;28;20179;-75
2021/01/25 03:19:59;;;;;;;6.43;4.70;;;-0.10;99.90;;;;;;5015220;28;20285;-76
2021/01/25 03:22:25;;;;;;;5.17;4.77;;;-0.10;99.90;;;;;;5033743;28;20236;-74
2021/01/25 03:24:51;;;;;;;4.57;4.10;;;-0.10;99.90;;;;;;5015757;28;20194;-78
2021/01/25 03:27:20;;;;;;;3.87;3.57;;;0.00;99.90;;;;;;5032876;28;20592;-74
2021/01/25 03:29:46;;;;;;;5.90;3.83;;;0.00;99.90;;;;;;5033548;28;20186;-77
2021/01/25 03:32:12;;;;;;;4.03;3.73;;;0.00;99.90;;;;;;5033787;28;20568;-74
2021/01/25 03:34:37;;;;;;;3.60;3.30;;;0.00;99.90;;;;;;5015871;28;20181;-76
2021/01/25 03:37:06;;;;;;;8.63;3.70;;;0.00;99.90;;;;;;5015609;28;20170;-76
2021/01/25 03:39:33;;;;;;;3.63;3.43;;;0.00;99.90;;;;;;5015647;28;20182;-77
2021/01/25 03:42:02;;;;;;;3.90;3.60;;;0.00;99.90;;;;;;5033296;28;20281;-77
2021/01/25 03:44:28;;;;;;;7.37;4.27;;;0.00;99.90;;;;;;5016626;28;20217;-77
2021/01/25 03:46:54;;;;;;;4.07;3.70;;;0.00;99.90;;;;;;5033394;28;20192;-78
2021/01/25 03:49:19;;;;;;;4.27;3.87;;;0.20;99.90;;;;;;5015843;28;20178;-74
2021/01/25 03:51:45;;;;;;;4.33;3.93;;;0.10;99.90;;;;;;5012488;28;20225;-77
2021/01/25 03:54:15;;;;;;;3.90;3.50;;;0.10;99.90;;;;;;5033662;28;20186;-76
2021/01/25 03:56:41;;;;;;;3.43;3.13;;;0.20;99.90;;;;;;5015823;28;20261;-76
2021/01/25 03:59:07;;;;;;;3.20;3.00;;;0.20;99.90;;;;;;5015648;28;20266;-77
2021/01/25 04:01:33;;;;;;;3.70;3.40;;;0.20;99.90;;;;;;5049295;23;20536;-77
2021/01/25 04:03:59;;;;;;;3.70;3.40;;;0.20;99.90;;;;;;5033346;28;20267;-76
2021/01/25 04:06:25;;;;;;;3.80;3.50;;;0.20;99.90;;;;;;5015432;28;20574;-74
2021/01/25 04:08:52;;;;;;;3.03;2.80;;;0.20;99.90;;;;;;5033127;28;20660;-75
2021/01/25 04:11:18;;;;;;;3.57;3.33;;;0.20;99.90;;;;;;5015339;28;20186;-76
2021/01/25 04:13:44;;;;;;;3.43;3.13;;;0.20;99.90;;;;;;5033376;28;20185;-76
2021/01/25 04:16:10;;;;;;;3.87;3.57;;;0.20;99.90;;;;;;5030060;28;20182;-77
2021/01/25 04:18:36;;;;;;;3.30;3.07;;;0.20;99.90;;;;;;5033416;28;20194;-77
2021/01/25 04:21:03;;;;;;;3.60;3.40;;;0.20;99.90;;;;;;5033148;28;20182;-77
2021/01/25 04:23:29;;;;;;;3.73;3.47;;;0.20;99.90;;;;;;5032854;28;20695;-75
2021/01/25 04:25:55;;;;;;;3.70;3.40;;;0.20;99.90;;;;;;5015758;28;20190;-76
2021/01/25 04:28:20;;;;;;;3.37;3.17;;;0.20;99.90;;;;;;5007288;28;20181;-76
2021/01/25 04:30:46;;;;;;;4.10;3.80;;;0.20;99.90;;;;;;5033232;28;20515;-76
2021/01/25 04:33:12;;;;;;;3.63;3.37;;;0.20;99.90;;;;;;5015323;28;20703;-74
2021/01/25 04:35:40;;;;;;;3.47;3.27;;;0.30;99.90;;;;;;5015727;28;20190;-77
2021/01/25 04:38:09;;;;;;;3.57;3.33;;;0.20;99.90;;;;;;5032978;28;20170;-76
2021/01/25 04:40:35;;;;;;;3.83;3.53;;;0.30;99.90;;;;;;5033198;28;20181;-75
2021/01/25 04:43:02;;;;;;;3.67;3.47;;;0.30;99.90;;;;;;5036394;28;20556;-76
2021/01/25 04:45:27;;;;;;;4.20;3.90;;;0.20;99.90;;;;;;5036789;28;20162;-75
2021/01/25 04:47:54;;;;;;;3.90;3.60;;;0.20;99.90;;;;;;5036775;28;20177;-76
2021/01/25 04:50:21;;;;;;;4.17;3.87;;;0.20;99.90;;;;;;5018857;28;20174;-76
2021/01/25 04:52:48;;;;;;;4.50;4.20;;;0.20;99.90;;;;;;5036623;28;20194;-77
2021/01/25 04:55:15;;;;;;;3.60;3.40;;;0.20;99.90;;;;;;5036620;28;20178;-76
2021/01/25 04:57:43;;;;;;;6.10;4.97;;;0.20;99.90;;;;;;5036609;28;20173;-76
2021/01/25 05:00:11;;;;;;;6.30;5.67;;;0.20;99.90;;;;;;5035464;28;20536;-74
2021/01/25 05:02:40;;;;;;;7.07;6.03;;;0.20;99.90;;;;;;5023237;28;20210;-76
2021/01/25 05:05:08;;;;;;;6.77;5.60;;;0.30;99.90;;;;;;5029398;28;20179;-75
2021/01/25 05:07:34;;;;;;;5.10;4.60;;;0.30;99.90;;;;;;5031676;28;20668;-76
2021/01/25 05:10:01;;;;;;;4.70;4.30;;;0.30;99.90;;;;;;5034368;28;20687;-75
2021/01/25 05:12:44;;;;;;;4.20;3.90;;;0.50;99.90;;;;;;5035974;28;20190;-75
2021/01/25 05:15:12;;;;;;;4.83;4.43;;;0.50;99.90;;;;;;5035807;28;20309;-74
2021/01/25 05:17:37;;;;;;;4.10;3.80;;;0.40;99.90;;;;;;5035953;28;20188;-76
2021/01/25 05:20:08;;;;;;;4.47;4.17;;;0.40;99.90;;;;;;5036059;28;20178;-75
2021/01/25 05:22:38;;;;;;;4.47;4.17;;;0.40;99.90;;;;;;5036080;28;20202;-76
2021/01/25 05:25:08;;;;;;;4.77;4.47;;;0.30;99.90;;;;;;5036147;28;20205;-76
2021/01/25 05:27:34;;;;;;;4.53;4.23;;;0.40;99.90;;;;;;5012476;28;20666;-77
2021/01/25 05:30:12;;;;;;;4.80;4.40;;;0.40;99.90;;;;;;5033504;28;20221;-76
2021/01/25 05:32:48;;;;;;;4.47;4.17;;;0.40;99.90;;;;;;5035600;28;20272;-76
2021/01/25 05:35:17;;;;;;;4.40;4.10;;;0.40;99.90;;;;;;5035910;28;20189;-75
2021/01/25 05:37:50;;;;;;;4.47;4.17;;;0.50;99.90;;;;;;5035625;28;20179;-75
2021/01/25 05:40:16;;;;;;;4.03;3.73;;;0.50;99.90;;;;;;5017750;28;20599;-76
2021/01/25 05:42:42;;;;;;;3.70;3.40;;;0.50;99.90;;;;;;5017688;28;20281;-77
2021/01/25 05:45:11;;;;;;;4.50;4.20;;;0.50;99.90;;;;;;5035761;28;20591;-76
2021/01/25 05:47:55;;;;;;;4.80;4.27;;;0.50;99.90;;;;;;5034569;28;20716;-77
2021/01/25 05:50:37;;;;;;;4.73;4.33;;;0.50;99.90;;;;;;5035801;28;20224;-76
2021/01/25 05:53:05;;;;;;;4.47;4.17;;;0.60;99.90;;;;;;5017601;28;20194;-76
2021/01/25 05:55:32;;;;;;;4.43;4.13;;;0.60;99.90;;;;;;5014782;28;20183;-76
2021/01/25 05:57:58;;;;;;;4.13;3.80;;;0.70;99.90;;;;;;5035569;28;20175;-77
2021/01/25 06:00:25;;;;;;;3.77;3.47;;;0.70;99.90;;;;;;5018039;28;20237;-76
2021/01/25 06:02:52;;;;;;;3.27;3.07;;;0.70;99.90;;;;;;5035281;28;20210;-76
2021/01/25 06:05:26;;;;;;;3.87;3.57;;;0.70;99.90;;;;;;5017811;28;20560;-76
2021/01/25 06:07:57;;;;;;;3.53;3.23;;;0.70;99.90;;;;;;5035573;28;20171;-76
2021/01/25 06:10:28;;;;;;;3.87;3.37;;;0.70;99.90;;;;;;5035648;28;20167;-76
2021/01/25 06:13:20;;;;;;;4.97;3.43;;;0.70;99.90;;;;;;5017510;28;20201;-76
2021/01/25 06:15:48;;;;;;;4.37;4.07;;;0.60;99.90;;;;;;5024700;28;20196;-76
2021/01/25 06:18:18;;;;;;;4.60;3.93;;;0.60;99.90;;;;;;5014878;28;20170;-76
2021/01/25 06:20:44;;;;;;;4.53;4.17;;;0.70;99.90;;;;;;5036866;28;20159;-76
2021/01/25 06:23:11;;;;;;;4.20;3.90;;;0.70;99.90;;;;;;5035067;28;20201;-75
2021/01/25 06:25:38;;;;;;;4.70;4.30;;;0.70;99.90;;;;;;5035192;28;20228;-76
2021/01/25 06:28:05;;;;;;;5.07;4.43;;;0.70;99.90;;;;;;5009351;28;20178;-76
2021/01/25 06:30:31;;;;;;;4.73;4.33;;;0.70;99.90;;;;;;5034874;28;20181;-76
2021/01/25 06:32:59;;;;;;;4.30;3.90;;;0.70;99.90;;;;;;5015743;28;20190;-75
2021/01/25 06:35:29;;;;;;;4.50;4.07;;;0.70;99.90;;;;;;5016476;28;20186;-76
2021/01/25 06:37:57;;;;;;;3.83;3.53;;;0.80;99.90;;;;;;5034632;28;20304;-76
2021/01/25 06:40:29;;;;;;;4.17;3.80;;;0.80;99.90;;;;;;5034358;28;20181;-76
2021/01/25 06:42:56;;;;;;;3.40;3.20;;;0.80;99.90;;;;;;5033987;28;20700;-78
2021/01/25 06:45:25;;;;;;;3.67;3.37;;;0.80;99.90;;;;;;5016695;28;20185;-76
2021/01/25 06:47:51;;;;;;;3.63;3.33;;;0.70;99.90;;;;;;5034299;28;20672;-76
2021/01/25 06:50:19;;;;;;;4.97;3.67;;;0.80;99.90;;;;;;5034656;28;20177;-76
2021/01/25 06:52:49;;;;;;;3.23;3.03;;;0.80;99.90;;;;;;5029192;28;20205;-75
2021/01/25 06:55:15;;;;;;;2.90;2.70;;;0.80;99.90;;;;;;5016390;28;20173;-75
2021/01/25 06:57:42;;;;;;;3.90;1.93;;;0.80;99.90;;;;;;5018137;28;20188;-75
2021/01/25 07:00:10;;;;;;;2.33;1.90;;;0.80;99.90;;;;;;5023908;28;20249;-76
2021/01/25 07:03:00;;;;;;;2.50;1.97;;;0.80;99.90;;;;;;5033760;28;20685;-76
2021/01/25 07:05:35;;;;;;;3.70;1.87;;;0.80;99.90;;;;;;5033530;28;20213;-76
2021/01/25 07:08:23;;;;;;;2.67;1.30;;;0.80;99.90;;;;;;5034491;28;20185;-76
2021/01/25 07:10:59;;;;;;;3.50;1.57;;;0.90;99.90;;;;;;5033996;28;20171;-75
2021/01/25 07:13:27;;;;;;;3.00;1.60;;;0.90;99.90;;;;;;5033549;28;20189;-75
2021/01/25 07:15:55;;;;;;;2.60;1.43;;;0.90;99.90;;;;;;5033746;28;20312;-76
2021/01/25 07:18:23;;;;;;;0.73;0.70;;;0.90;99.90;;;;;;5033635;28;20182;-75
2021/01/25 07:20:50;;;;;;;2.03;1.00;;;0.90;99.90;;;;;;5034136;28;20598;-77
2021/01/25 07:23:19;;;;;;;0.90;0.90;;;0.80;99.90;;;;;;5033366;28;20198;-75
2021/01/25 07:25:55;;;;;;;1.30;0.90;;;0.80;99.90;;;;;;5033477;28;20174;-76
2021/01/25 07:28:22;;;;;;;1.60;0.97;;;0.90;99.90;;;;;;5024990;28;20289;-76
2021/01/25 07:30:48;;;;;;;2.53;0.80;;;0.90;99.90;;;;;;5033501;28;20595;-75
2021/01/25 07:33:14;;;;;;;1.20;0.90;;;0.80;99.90;;;;;;5033543;28;20244;-75
2021/01/25 07:35:40;;;;;;;1.93;1.00;;;0.80;99.90;;;;;;5015971;28;20177;-75
2021/01/25 07:38:06;;;;;;;0.93;0.90;;;0.80;99.90;;;;;;5033529;28;20182;-75
2021/01/25 07:40:31;;;;;;;0.90;0.67;;;0.80;99.90;;;;;;5033696;28;20171;-75
2021/01/25 07:43:00;;;;;;;2.83;1.00;;;0.80;99.90;;;;;;5033131;28;20672;-74
2021/01/25 07:45:26;;;;;;;2.00;0.97;;;0.90;99.90;;;;;;5018995;28;20167;-76
2021/01/25 07:47:51;;;;;;;2.03;0.80;;;0.90;99.90;;;;;;5016828;28;20197;-76
2021/01/25 07:50:17;;;;;;;1.97;1.10;;;0.90;99.90;;;;;;5018117;28;20568;-76
2021/01/25 07:52:43;;;;;;;1.27;0.93;;;0.90;99.90;;;;;;5031910;28;20201;-76
2021/01/25 07:55:13;;;;;;;5.07;1.77;;;0.90;99.90;;;;;;5033151;28;20174;-76
2021/01/25 07:57:39;;;;;;;2.37;1.23;;;0.90;99.90;;;;;;5015388;28;20171;-75
2021/01/25 08:00:22;;;;;;;2.37;1.00;;;0.90;99.90;;;;;;5033112;28;20179;-76
2021/01/25 08:03:01;;;;;;;2.83;1.67;;;0.90;99.90;;;;;;5015046;28;20205;-76
2021/01/25 08:05:27;;;;;;;2.20;0.97;;;0.90;99.90;;;;;;5015228;28;20181;-74
2021/01/25 08:07:54;;;;;;;1.70;1.00;;;0.90;99.90;;;;;;5033091;28;20178;-74
2021/01/25 08:10:20;;;;;;;3.23;0.90;;;1.00;99.90;;;;;;5033290;28;20177;-74
2021/01/25 08:12:46;;;;;;;2.77;1.10;;;0.90;99.90;;;;;;5033012;28;20201;-75
2021/01/25 08:15:19;;;;;;;1.90;1.00;;;0.90;99.90;;;;;;5015912;28;20224;-74
2021/01/25 08:18:07;;;;;;;2.83;0.93;;;0.90;99.90;;;;;;5037470;28;20507;-75
2021/01/25 08:20:36;;;;;;;1.20;0.90;;;0.90;99.90;;;;;;5037136;28;20170;-75
2021/01/25 08:23:13;;;;;;;3.57;0.87;;;0.90;99.90;;;;;;5036726;28;20289;-75
2021/01/25 08:25:40;;;;;;;3.37;0.93;;;0.90;99.90;;;;;;5033859;28;20181;-75
2021/01/25 08:28:14;;;;;;;1.50;1.00;;;1.00;99.90;;;;;;5028313;28;20179;-75
2021/01/25 08:30:48;;;;;;;1.33;0.80;;;1.00;99.90;;;;;;5019117;28;20180;-74
2021/01/25 08:33:33;;;;;;;3.53;0.93;;;1.00;99.90;;;;;;5021578;28;20206;-74
2021/01/25 08:36:03;;;;;;;2.57;0.90;;;1.10;99.90;;;;;;5025312;28;20186;-75
2021/01/25 08:38:46;;;;;;;2.60;0.70;;;1.10;99.90;;;;;;5015867;28;20657;-75
2021/01/25 08:41:28;;;;;;;1.10;0.93;;;1.00;99.90;;;;;;5009421;28;20242;-74
2021/01/25 08:43:57;;;;;;;0.87;0.80;;;1.00;99.90;;;;;;5003693;28;20194;-74
2021/01/25 08:46:34;;;;;;;1.83;1.03;;;1.10;99.90;;;;;;5015663;28;20301;-74
2021/01/25 08:49:17;;;;;;;3.20;0.90;;;1.10;99.90;;;;;;5000050;28;20182;-74
2021/01/25 08:51:59;;;;;;;3.60;0.70;;;1.10;99.90;;;;;;5005078;28;20194;-75
2021/01/25 08:54:30;;;;;;;1.07;0.90;;;1.10;99.90;;;;;;5019567;28;20734;-74
2021/01/25 08:56:56;;;;;;;1.03;0.97;;;1.10;99.90;;;;;;5022755;28;20186;-75
2021/01/25 08:59:37;;;;;;;1.87;1.13;;;1.10;99.90;;;;;;5017716;28;20641;-74
2021/01/25 09:02:21;;;;;;;2.27;1.00;;;1.20;99.90;;;;;;5022438;28;20210;-75
2021/01/25 09:04:51;;;;;;;2.70;1.00;;;1.20;99.90;;;;;;4998199;28;20198;-74
2021/01/25 09:07:20;;;;;;;3.10;1.20;;;1.20;99.90;;;;;;5019667;28;20703;-74
2021/01/25 09:09:47;;;;;;;2.00;1.23;;;1.20;99.90;;;;;;5017311;28;20170;-75
2021/01/25 09:12:14;;;;;;;2.87;1.33;;;1.20;99.90;;;;;;5016502;28;20245;-75
2021/01/25 09:14:41;;;;;;;5.30;1.63;;;1.20;99.90;;;;;;5000509;28;20680;-75
2021/01/25 09:17:08;;;;;;;1.53;1.10;;;1.20;99.90;;;;;;5008714;28;20636;-75
2021/01/25 09:19:34;;;;;;;3.53;1.57;;;1.30;99.90;;;;;;5020592;28;20545;-74
2021/01/25 09:22:00;;;;;;;4.83;1.10;;;1.30;99.90;;;;;;5014587;28;20303;-74
2021/01/25 09:24:27;;;;;;;3.07;1.10;;;1.30;99.90;;;;;;5014635;28;20202;-73
2021/01/25 09:26:53;;;;;;;1.23;1.13;;;1.30;99.90;;;;;;5016015;28;20553;-72
2021/01/25 09:29:19;;;;;;;1.27;1.10;;;1.30;99.90;;;;;;5033179;28;20178;-75
2021/01/25 09:31:45;;;;;;;1.50;1.00;;;1.30;99.90;;;;;;5034668;28;20203;-74
2021/01/25 09:34:11;;;;;;;2.30;1.10;;;1.30;99.90;;;;;;5017593;28;20174;-74
2021/01/25 09:36:37;;;;;;;2.30;1.13;;;1.50;99.90;;;;;;5035508;28;20201;-74
2021/01/25 09:39:04;;;;;;;2.40;1.27;;;1.50;99.90;;;;;;5034809;28;20213;-75
2021/01/25 09:41:31;;;;;;;1.50;1.10;;;1.40;99.90;;;;;;5035332;28;20252;-74
2021/01/25 09:43:57;;;;;;;2.73;0.80;;;1.40;99.90;;;;;;5017493;28;20595;-74
2021/01/25 09:46:23;;;;;;;3.03;1.00;;;1.40;99.90;;;;;;5035638;28;20228;-75
2021/01/25 09:48:48;;;;;;;1.80;0.90;;;1.50;99.90;;;;;;5035216;28;20583;-74
2021/01/25 09:51:15;;;;;;;1.50;1.00;;;1.50;99.90;;;;;;5035322;28;20209;-74
2021/01/25 09:53:41;;;;;;;3.93;1.93;;;1.70;99.90;;;;;;5035289;28;20664;-74
2021/01/25 09:56:06;;;;;;;4.93;1.60;;;1.60;99.90;;;;;;5017306;28;20261;-75
2021/01/25 09:58:34;;;;;;;5.43;1.23;;;1.60;99.90;;;;;;5031966;28;20174;-75
2021/01/25 10:01:00;;;;;;;1.23;1.03;;;1.60;99.90;;;;;;5017240;28;20269;-75
2021/01/25 10:03:26;;;;;;;1.53;0.87;;;1.70;99.90;;;;;;5072438;23;20316;-77
2021/01/25 10:05:52;;;;;;;2.37;1.20;;;1.70;99.90;;;;;;5057778;28;20177;-77
2021/01/25 10:08:17;;;;;;;2.50;0.97;;;1.80;99.90;;;;;;5057825;28;20182;-77
2021/01/25 10:10:43;;;;;;;5.90;1.00;;;1.80;99.90;;;;;;5057196;28;20182;-77
2021/01/25 10:13:09;;;;;;;1.53;0.97;;;1.90;99.90;;;;;;5057091;28;20204;-77
2021/01/25 10:15:35;;;;;;;3.70;1.17;;;2.00;99.90;;;;;;5055295;28;20260;-77
2021/01/25 10:18:02;;;;;;;0.93;0.90;;;2.10;99.90;;;;;;5055574;28;20178;-77
2021/01/25 10:20:28;;;;;;;0.90;0.90;;;2.20;99.90;;;;;;5050566;28;20256;-77
2021/01/25 10:22:55;;;;;;;0.83;0.70;;;2.20;99.90;;;;;;5045551;28;20574;-77
2021/01/25 10:25:21;;;;;;;0.90;0.77;;;2.10;99.90;;;;;;5047828;28;20248;-77
2021/01/25 10:27:47;;;;;;;1.23;1.10;;;2.20;99.90;;;;;;5046417;28;20184;-77
2021/01/25 10:30:15;;;;;;;1.73;0.80;;;2.20;99.90;;;;;;5048547;28;20243;-77
2021/01/25 10:32:41;;;;;;;0.70;0.70;;;2.30;99.90;;;;;;5052534;28;20208;-77
2021/01/25 10:35:08;;;;;;;4.47;1.20;;;2.30;99.90;;;;;;5052228;28;20257;-77
2021/01/25 10:37:34;;;;;;;2.67;1.10;;;2.20;99.90;;;;;;5049327;28;20261;-77
2021/01/25 10:40:00;;;;;;;2.80;1.20;;;2.30;99.90;;;;;;5050971;28;20603;-77
2021/01/25 10:42:28;;;;;;;3.23;1.20;;;2.20;99.90;;;;;;5054103;28;20201;-77
2021/01/25 10:44:53;;;;;;;2.17;1.13;;;2.20;99.90;;;;;;5042847;28;20958;-78
2021/01/25 10:47:19;;;;;;;1.87;0.90;;;2.10;99.90;;;;;;5067543;28;20185;-77
2021/01/25 10:49:47;;;;;;;2.40;1.13;;;2.10;99.90;;;;;;5045024;28;20170;-78
2021/01/25 10:52:13;;;;;;;1.00;0.80;;;2.10;99.90;;;;;;5045796;28;20225;-78
2021/01/25 10:54:39;;;;;;;1.60;0.90;;;2.10;99.90;;;;;;5044452;28;20181;-79
2021/01/25 10:57:05;;;;;;;1.53;0.90;;;2.20;99.90;;;;;;5051108;28;20189;-77
2021/01/25 10:59:37;;;;;;;1.43;0.97;;;2.30;99.90;;;;;;5071380;27;20534;-77
2021/01/25 11:02:05;;;;;;;1.27;0.70;;;2.30;99.90;;;;;;5072980;28;20243;-78
2021/01/25 11:04:31;;;;;;;1.00;0.93;;;2.30;99.90;;;;;;5070034;28;20338;-77
2021/01/25 11:06:57;;;;;;;1.20;1.00;;;2.30;99.90;;;;;;5072067;28;20235;-77
2021/01/25 11:09:23;;;;;;;2.00;1.10;;;2.30;99.90;;;;;;5072495;28;20170;-76
2021/01/25 11:11:50;;;;;;;1.17;0.83;;;2.40;99.90;;;;;;5083090;28;20189;-77
2021/01/25 11:14:16;;;;;;;1.40;0.97;;;2.40;99.90;;;;;;5073119;28;20737;-77
2021/01/25 11:16:43;;;;;;;0.93;0.80;;;2.40;99.90;;;;;;5074728;28;20177;-78
2021/01/25 11:19:10;;;;;;;1.40;0.63;;;;;;;;;;5077265;28;20692;-78
2021/01/25 11:21:36;;;;;;;2.63;1.10;;;;;;;;;;5072334;28;20630;-78
2021/01/25 11:24:03;;;;;;;0.87;0.80;;;;;;;;;;5067377;28;20571;-77
2021/01/25 11:26:33;;;;;;;0.87;0.70;;;;;;;;;;5076613;28;20172;-77
2021/01/25 11:28:59;;;;;;;1.57;1.00;;;;;;;;;;5068914;28;20177;-77
2021/01/25 11:31:25;;;;;;;1.37;0.70;;;;;;;;;;5074167;28;20230;-77
2021/01/25 11:33:51;;;;;;;1.83;0.73;;;;;;;;;;5063292;28;20216;-77
2021/01/25 11:36:17;;;;;;;2.50;0.97;;;;;;;;;;5070614;28;20181;-80
2021/01/25 11:38:43;;;;;;;0.93;0.70;;;;;;;;;;5070627;28;20222;-77
2021/01/25 11:41:09;;;;;;;2.63;0.83;;;;;;;;;;5071442;28;20211;-78
2021/01/25 11:43:37;;;;;;;0.97;0.70;;;;;;;;;;5073046;28;20205;-77
2021/01/25 11:46:05;;;;;;;1.00;0.80;;;;;;;;;;5066238;28;20169;-76
2021/01/25 11:48:31;;;;;;;1.80;0.80;;;;;;;;;;5068071;28;20180;-78
2021/01/25 11:50:57;;;;;;;1.40;1.00;;;;;;;;;;5070478;28;20200;-77
2021/01/25 11:53:36;;;;;;;2.90;1.13;;;;;;;;;;5076134;28;20205;-78
2021/01/25 11:56:06;;;;;;;1.00;0.90;;;;;;;;;;5070832;28;20185;-79
2021/01/25 11:58:46;;;;;;;1.83;1.17;;;;;;;;;;5081173;28;20679;-78
2021/01/25 12:01:12;;;;;;;2.80;0.90;;;;;;;;;;5064947;28;20208;-77
2021/01/25 12:03:38;;;;;;;2.30;0.80;;;;;;;;;;5071113;28;20197;-77
2021/01/25 12:06:05;;;;;;;2.40;0.87;;;;;;;;;;5068167;28;20648;-77
2021/01/25 12:08:35;;;;;;;2.50;1.30;;;;;;;;;;5067985;28;20192;-76
2021/01/25 12:11:02;;;;;;;1.33;0.80;;;;;;;;;;5056761;28;20186;-76
2021/01/25 12:13:28;;;;;;;1.03;0.57;;;;;;;;;;5056111;28;20760;-77
2021/01/25 12:15:54;;;;;;;0.87;0.80;;;;;;;;;;5070212;28;20189;-77
2021/01/25 12:18:20;;;;;;;1.47;0.60;;;;;;;;;;5047098;28;20202;-77
2021/01/25 12:20:47;;;;;;;1.60;1.30;;;;;;;;;;5051750;28;20233;-76
2021/01/25 12:23:13;;;;;;;1.90;0.90;;;;;;;;;;5048100;28;20222;-76
2021/01/25 12:25:39;;;;;;;1.47;0.83;;;;;;;;;;5060647;28;20182;-76
2021/01/25 12:28:07;;;;;;;1.33;0.70;;;;;;;;;;5040020;28;20253;-76
2021/01/25 12:30:33;;;;;;;1.80;0.90;;;;;;;;;;5057410;28;20181;-77
2021/01/25 12:32:59;;;;;;;2.10;0.70;;;;;;;;;;5065570;28;20240;-76
2021/01/25 12:35:25;;;;;;;1.80;0.83;;;;;;;;;;5056488;28;20258;-77
2021/01/25 12:37:53;;;;;;;1.10;0.70;;;;;;;;;;5056848;28;20289;-77
2021/01/25 12:40:20;;;;;;;1.23;0.70;;;;;;;;;;5055024;28;20205;-76
2021/01/25 12:42:46;;;;;;;1.47;0.60;;;;;;;;;;5056922;28;20209;-76
2021/01/25 12:45:12;;;;;;;0.97;0.70;;;;;;;;;;5053272;28;20636;-76
2021/01/25 12:47:39;;;;;;;0.97;0.57;;;;;;;;;;5057374;28;20174;-75
2021/01/25 12:50:06;;;;;;;1.50;0.90;;;;;;;;;;5051950;28;20592;-77
2021/01/25 12:52:33;;;;;;;1.20;0.70;;;;;;;;;;5056712;28;20201;-76
2021/01/25 12:55:00;;;;;;;1.77;1.07;;;;;;;;;;5054847;28;20184;-76
2021/01/25 12:57:26;;;;;;;1.70;0.87;;;;;;;;;;5059490;28;20210;-76
2021/01/25 12:59:53;;;;;;;2.43;1.00;;;;;;;;;;5050896;28;20261;-77
2021/01/25 13:02:19;;;;;;;0.83;0.60;;;;;;;;;;5056920;28;20260;-75
2021/01/25 13:04:45;;;;;;;1.70;0.73;;;;;;;;;;5048066;28;20264;-77
2021/01/25 13:07:12;;;;;;;2.10;0.60;;;;;;;;;;5054493;28;20178;-76
2021/01/25 13:09:39;;;;;;;0.93;0.50;;;;;;;;;;5050300;28;20660;-75
2021/01/25 13:12:05;;;;;;;3.00;0.70;;;;;;;;;;5051488;28;20174;-76